createdAt,value
2019-05-02T00:02:30.165Z,3.73
2019-05-02T00:05:00.253Z,5.03
2019-05-02T00:07:30.278Z,5.70
2019-05-02T00:10:00.604Z,7.10
2019-05-02T00:12:31.707Z,5.80
2019-05-02T00:15:03.611Z,6.30
2019-05-02T00:17:34.659Z,5.60
2019-05-02T00:20:06.428Z,10.10
2019-05-02T00:22:36.465Z,4.13
2019-05-02T00:25:06.540Z,5.37
2019-05-02T00:27:37.756Z,11.10
2019-05-02T00:30:08.921Z,5.10
2019-05-02T00:32:39.127Z,9.80
2019-05-02T00:35:09.383Z,5.33
2019-05-02T00:37:39.471Z,9.33
2019-05-02T00:40:09.660Z,6.93
2019-05-02T00:42:39.677Z,8.27
2019-05-02T00:45:09.801Z,9.43
2019-05-02T00:47:47.718Z,9.03
2019-05-02T00:50:17.281Z,4.13
2019-05-02T00:52:47.313Z,6.13
2019-05-02T00:55:17.389Z,7.07
2019-05-02T00:57:50.962Z,8.10
2019-05-02T01:00:19.812Z,7.23
2019-05-02T01:02:54.973Z,12.27
2019-05-02T01:05:25.037Z,8.83
2019-05-02T01:07:56.037Z,5.70
2019-05-02T01:10:26.811Z,4.33
2019-05-02T01:12:56.894Z,12.37
2019-05-02T01:15:26.903Z,7.70
2019-05-02T01:18:00.995Z,8.70
2019-05-02T01:20:29.352Z,9.87
2019-05-02T01:22:59.420Z,15.57
2019-05-02T01:25:29.456Z,7.37
2019-05-02T01:28:17.904Z,7.77
2019-05-02T01:31:05.224Z,9.00
2019-05-02T01:33:41.786Z,9.47
2019-05-02T01:36:30.945Z,8.73
2019-05-02T01:39:02.912Z,9.27
2019-05-02T01:41:34.073Z,10.30
2019-05-02T01:44:04.192Z,12.53
2019-05-02T01:46:34.213Z,7.43
2019-05-02T01:49:04.466Z,7.60
2019-05-02T01:51:36.810Z,14.20
2019-05-02T01:54:09.924Z,13.07
2019-05-02T01:56:38.025Z,10.63
2019-05-02T01:59:08.181Z,12.40
2019-05-02T02:01:38.223Z,12.97
2019-05-02T02:04:08.249Z,16.43
2019-05-02T02:06:38.806Z,9.70
2019-05-02T02:09:10.063Z,14.47
2019-05-02T02:11:40.088Z,12.90
2019-05-02T02:14:12.785Z,12.23
2019-05-02T02:16:41.891Z,10.13
2019-05-02T02:19:34.682Z,12.23
2019-05-02T02:22:26.236Z,9.83
2019-05-02T02:25:13.601Z,13.53
2019-05-02T02:27:43.678Z,11.83
2019-05-02T02:30:17.568Z,13.70
2019-05-02T02:32:45.468Z,9.83
2019-05-02T02:35:15.507Z,9.43
2019-05-02T02:37:52.755Z,15.87
2019-05-02T02:40:17.284Z,14.13
2019-05-02T02:42:47.374Z,12.03
2019-05-02T02:45:40.607Z,13.70
2019-05-02T02:48:10.649Z,13.27
2019-05-02T02:50:43.053Z,11.20
2019-05-02T02:53:18.113Z,12.13
2019-05-02T02:55:44.178Z,12.30
2019-05-02T02:58:14.248Z,13.90
2019-05-02T03:00:47.635Z,14.97
2019-05-02T03:03:20.840Z,13.27
2019-05-02T03:05:47.781Z,15.50
2019-05-02T03:08:17.838Z,12.77
2019-05-02T03:10:47.883Z,14.60
2019-05-02T03:13:52.441Z,8.10
2019-05-02T03:16:19.457Z,11.53
2019-05-02T03:18:49.525Z,17.50
2019-05-02T03:21:22.129Z,16.27
2019-05-02T03:24:01.664Z,12.50
2019-05-02T03:26:25.015Z,10.40
2019-05-02T03:28:58.482Z,16.00
2019-05-02T03:31:30.353Z,19.00
2019-05-02T03:34:00.522Z,14.47
2019-05-02T03:36:36.081Z,15.57
2019-05-02T03:39:13.503Z,11.03
2019-05-02T03:41:34.744Z,17.17
2019-05-02T03:44:11.001Z,10.73
2019-05-02T03:46:36.512Z,12.93
2019-05-02T03:49:09.416Z,13.70
2019-05-02T03:51:38.289Z,14.67
2019-05-02T03:54:10.350Z,10.47
2019-05-02T03:56:44.632Z,13.00
2019-05-02T03:59:11.898Z,15.60
2019-05-02T04:01:43.140Z,12.43
2019-05-02T04:04:20.851Z,12.37
2019-05-02T04:06:45.929Z,14.10
2019-05-02T04:09:39.139Z,14.47
2019-05-02T04:12:11.822Z,17.50
2019-05-02T04:14:39.484Z,14.97
2019-05-02T04:17:11.112Z,13.83
2019-05-02T04:19:41.316Z,14.17
2019-05-02T04:22:12.333Z,15.67
2019-05-02T04:24:48.030Z,16.10
2019-05-02T04:27:15.803Z,12.57
2019-05-02T04:29:46.810Z,11.00
2019-05-02T04:32:16.839Z,10.97
2019-05-02T04:34:48.929Z,9.63
2019-05-02T04:37:18.611Z,11.17
2019-05-02T04:39:49.334Z,15.03
2019-05-02T04:42:23.181Z,10.33
2019-05-02T04:45:11.818Z,15.57
2019-05-02T04:47:23.899Z,12.73
2019-05-02T04:49:53.950Z,9.57
2019-05-02T04:52:24.009Z,13.37
2019-05-02T04:55:08.119Z,8.37
2019-05-02T04:57:35.973Z,9.83
2019-05-02T05:00:06.141Z,10.47
2019-05-02T05:02:36.580Z,8.17
2019-05-02T05:05:02.106Z,11.90
2019-05-02T05:07:41.115Z,14.17
2019-05-02T05:10:04.050Z,6.17
2019-05-02T05:12:38.057Z,7.87
2019-05-02T05:15:07.846Z,6.77
2019-05-02T05:17:38.039Z,8.33
2019-05-02T05:20:14.228Z,7.03
2019-05-02T05:22:44.251Z,8.23
2019-05-02T05:25:21.225Z,8.70
2019-05-02T05:27:52.642Z,8.83
2019-05-02T05:30:20.831Z,6.10
2019-05-02T05:32:50.899Z,7.17
2019-05-02T05:35:21.888Z,6.97
2019-05-02T05:37:53.170Z,5.43
2019-05-02T05:40:28.174Z,6.53
2019-05-02T05:42:57.371Z,10.93
2019-05-02T05:45:27.850Z,7.83
2019-05-02T05:48:01.071Z,3.47
2019-05-02T05:50:32.139Z,3.23
2019-05-02T05:53:02.121Z,2.80
2019-05-02T05:55:33.126Z,5.87
2019-05-02T05:58:12.326Z,3.60
2019-05-02T06:00:34.905Z,3.27
2019-05-02T06:03:11.538Z,5.80
2019-05-02T06:05:40.445Z,8.13
2019-05-02T06:08:08.449Z,3.23
2019-05-02T06:10:39.067Z,3.20
2019-05-02T06:13:10.818Z,3.93
2019-05-02T06:15:41.945Z,9.00
2019-05-02T06:18:12.005Z,3.33
2019-05-02T06:20:42.028Z,6.43
2019-05-02T06:23:12.088Z,6.40
2019-05-02T06:25:42.907Z,4.33
2019-05-02T06:28:13.163Z,7.00
2019-05-02T06:30:43.176Z,7.37
2019-05-02T06:33:13.229Z,5.03
2019-05-02T06:35:43.252Z,5.87
2019-05-02T06:38:13.293Z,5.57
2019-05-02T06:40:44.608Z,3.17
2019-05-02T06:43:15.067Z,6.40
2019-05-02T06:45:45.107Z,4.53
2019-05-02T06:48:17.722Z,6.70
2019-05-02T06:50:46.893Z,1.10
2019-05-02T06:53:16.925Z,6.40
2019-05-02T06:55:46.956Z,4.37
2019-05-02T06:58:17.019Z,3.53
2019-05-02T07:00:57.297Z,3.77
2019-05-02T07:03:19.926Z,5.60
2019-05-02T07:05:50.029Z,4.80
2019-05-02T07:08:20.159Z,6.03
2019-05-02T07:10:50.189Z,4.63
2019-05-02T07:13:20.246Z,7.37
2019-05-02T07:16:37.755Z,5.63
2019-05-02T07:19:05.319Z,6.50
2019-05-02T07:21:35.357Z,4.93
2019-05-02T07:24:05.409Z,4.03
2019-05-02T07:26:35.469Z,3.73
2019-05-02T07:29:05.505Z,6.47
2019-05-02T07:31:35.549Z,11.33
2019-05-02T07:34:07.963Z,6.93
2019-05-02T07:36:38.366Z,5.70
2019-05-02T07:39:09.142Z,6.63
2019-05-02T07:41:39.198Z,4.73
2019-05-02T07:44:09.229Z,4.80
2019-05-02T07:46:51.142Z,5.00
2019-05-02T07:49:11.088Z,6.13
2019-05-02T07:51:41.138Z,3.10
2019-05-02T07:54:11.188Z,3.23
2019-05-02T07:56:41.313Z,4.37
2019-05-02T07:59:11.376Z,6.43
2019-05-02T08:01:44.841Z,7.03
2019-05-02T08:04:13.167Z,6.13
2019-05-02T08:06:44.637Z,8.23
2019-05-02T08:09:14.942Z,10.10
2019-05-02T08:11:44.977Z,6.47
2019-05-02T08:14:15.013Z,4.90
2019-05-02T08:16:45.040Z,5.33
2019-05-02T08:19:15.063Z,4.27
2019-05-02T08:21:46.072Z,2.47
2019-05-02T08:24:16.101Z,6.83
2019-05-02T08:26:58.246Z,7.43
2019-05-02T08:29:28.900Z,4.63
2019-05-02T08:31:58.999Z,6.30
2019-05-02T08:34:33.123Z,6.47
2019-05-02T08:37:04.803Z,4.87
2019-05-02T08:39:35.348Z,3.10
2019-05-02T08:42:05.496Z,4.40
2019-05-02T08:44:35.588Z,6.73
2019-05-02T08:47:18.145Z,5.60
2019-05-02T08:49:37.366Z,4.20
2019-05-02T08:52:07.417Z,3.77
2019-05-02T08:54:38.422Z,6.60
2019-05-02T08:57:08.480Z,3.03
2019-05-02T08:59:40.842Z,2.70
2019-05-02T09:02:10.267Z,4.87
2019-05-02T09:04:40.283Z,5.13
2019-05-02T09:07:10.335Z,5.77
2019-05-02T09:09:40.353Z,4.67
2019-05-02T09:12:13.214Z,3.80
2019-05-02T09:14:42.635Z,4.03
2019-05-02T09:17:16.392Z,3.10
2019-05-02T09:19:59.157Z,5.60
2019-05-02T09:22:17.295Z,7.87
2019-05-02T09:24:47.425Z,1.83
2019-05-02T09:27:17.621Z,3.87
2019-05-02T09:29:47.762Z,5.13
2019-05-02T09:32:22.801Z,4.17
2019-05-02T09:34:51.700Z,4.83
2019-05-02T09:37:22.738Z,4.47
2019-05-02T09:39:52.870Z,3.53
2019-05-02T09:42:22.897Z,4.33
2019-05-02T09:44:56.896Z,3.77
2019-05-02T09:47:27.493Z,4.10
2019-05-02T09:50:20.456Z,2.73
2019-05-02T09:52:48.982Z,1.93
2019-05-02T09:55:19.038Z,2.80
2019-05-02T09:57:49.069Z,4.30
2019-05-02T10:00:41.850Z,2.23
2019-05-02T10:03:13.189Z,3.70
2019-05-02T10:05:43.287Z,2.70
2019-05-02T10:08:14.002Z,4.50
2019-05-02T10:10:45.996Z,5.57
2019-05-02T10:13:15.967Z,2.73
2019-05-02T10:15:46.042Z,2.57
2019-05-02T10:18:19.782Z,3.97
2019-05-02T10:20:47.817Z,2.97
2019-05-02T10:23:19.560Z,5.33
2019-05-02T10:25:49.592Z,6.53
2019-05-02T10:28:19.750Z,5.63
2019-05-02T10:30:52.662Z,7.77
2019-05-02T10:33:22.577Z,2.57
2019-05-02T10:35:52.769Z,5.67
2019-05-02T10:38:22.956Z,2.80
2019-05-02T10:41:01.302Z,3.90
2019-05-02T10:43:25.694Z,3.63
2019-05-02T10:46:07.849Z,5.63
2019-05-02T10:48:42.100Z,4.10
2019-05-02T10:51:31.618Z,3.10
2019-05-02T10:54:04.210Z,7.80
2019-05-02T10:56:34.578Z,2.50
2019-05-02T10:59:05.064Z,4.50
2019-05-02T11:01:54.020Z,4.60
2019-05-02T11:04:29.024Z,4.63
2019-05-02T11:06:56.890Z,4.60
2019-05-02T11:09:27.864Z,6.20
2019-05-02T11:11:58.460Z,4.53
2019-05-02T11:14:42.172Z,5.27
2019-05-02T11:17:36.276Z,6.80
2019-05-02T11:20:09.196Z,5.03
2019-05-02T11:22:39.205Z,5.47
2019-05-02T11:25:11.979Z,4.23
2019-05-02T11:27:42.124Z,7.70
2019-05-02T11:30:16.490Z,4.73
2019-05-02T11:32:43.993Z,3.83
2019-05-02T11:35:14.049Z,3.97
2019-05-02T11:37:45.029Z,3.80
2019-05-02T11:40:15.076Z,8.17
2019-05-02T11:42:45.105Z,6.40
2019-05-02T11:45:15.148Z,6.03
2019-05-02T11:47:45.165Z,4.37
2019-05-02T11:50:15.219Z,5.83
2019-05-02T11:52:45.245Z,4.63
2019-05-02T11:55:19.042Z,5.60
2019-05-02T11:57:47.013Z,3.20
2019-05-02T12:00:17.069Z,5.13
2019-05-02T12:03:06.058Z,6.00
2019-05-02T12:05:41.878Z,6.67
2019-05-02T12:08:12.321Z,4.73
2019-05-02T12:10:42.486Z,6.20
2019-05-02T12:13:16.028Z,6.43
2019-05-02T12:15:44.516Z,4.13
2019-05-02T12:18:14.570Z,7.40
2019-05-02T12:20:44.600Z,6.13
2019-05-02T12:23:14.711Z,4.87
2019-05-02T12:25:44.804Z,6.60
2019-05-02T12:28:14.857Z,4.87
2019-05-02T12:30:44.956Z,8.50
2019-05-02T12:33:15.178Z,5.47
2019-05-02T12:35:45.208Z,6.13
2019-05-02T12:38:15.244Z,6.83
2019-05-02T12:40:45.269Z,8.30
2019-05-02T12:43:15.337Z,3.77
2019-05-02T12:45:45.347Z,9.13
2019-05-02T12:48:15.456Z,7.37
2019-05-02T12:50:45.465Z,4.67
2019-05-02T12:53:15.492Z,6.93
2019-05-02T12:55:45.525Z,6.77
2019-05-02T12:58:15.543Z,8.40
2019-05-02T13:00:45.587Z,5.20
2019-05-02T13:03:36.378Z,11.20
2019-05-02T13:06:07.475Z,8.43
2019-05-02T13:08:48.650Z,10.27
2019-05-02T13:11:25.151Z,6.03
2019-05-02T13:13:55.204Z,10.83
2019-05-02T13:16:25.225Z,10.57
2019-05-02T13:18:57.269Z,4.40
2019-05-02T13:21:40.064Z,4.67
2019-05-02T13:24:17.768Z,10.17
2019-05-02T13:26:53.933Z,10.63
2019-05-02T13:29:19.542Z,15.27
2019-05-02T13:31:55.684Z,5.43
2019-05-02T13:34:41.977Z,5.43
2019-05-02T13:37:13.605Z,10.27
2019-05-02T13:40:04.436Z,11.33
2019-05-02T13:42:34.443Z,8.60
2019-05-02T13:45:29.497Z,10.97
2019-05-02T13:47:59.517Z,4.97
2019-05-02T13:50:31.558Z,9.80
2019-05-02T13:53:02.651Z,7.27
2019-05-02T13:55:37.634Z,13.57
2019-05-02T13:58:07.693Z,13.57
2019-05-02T14:00:44.949Z,7.60
2019-05-02T14:03:15.013Z,12.30
2019-05-02T14:05:50.765Z,10.20
2019-05-02T14:08:37.483Z,10.40
2019-05-02T14:11:43.454Z,11.50
2019-05-02T14:14:13.585Z,9.90
2019-05-02T14:16:43.625Z,19.20
2019-05-02T14:19:13.675Z,14.97
2019-05-02T14:21:43.711Z,12.43
2019-05-02T14:24:13.809Z,20.40
2019-05-02T14:26:44.893Z,11.13
2019-05-02T14:29:16.383Z,8.37
2019-05-02T14:31:46.448Z,8.23
2019-05-02T14:34:42.588Z,10.27
2019-05-02T14:37:12.626Z,9.63
2019-05-02T14:39:44.727Z,7.40
2019-05-02T14:42:21.324Z,6.03
2019-05-02T14:45:04.174Z,5.57
2019-05-02T14:47:19.688Z,8.83
2019-05-02T14:49:52.035Z,9.37
2019-05-02T14:52:22.125Z,9.33
2019-05-02T14:54:55.385Z,15.97
2019-05-02T14:57:27.100Z,12.73
2019-05-02T14:59:59.364Z,13.77
2019-05-02T15:02:49.161Z,9.63
2019-05-02T15:05:19.308Z,12.23
2019-05-02T15:07:48.772Z,12.57
2019-05-02T15:10:18.819Z,11.90
2019-05-02T15:12:51.623Z,20.97
2019-05-02T15:15:23.001Z,10.27
2019-05-02T15:17:53.066Z,12.87
2019-05-02T15:20:35.905Z,10.30
2019-05-02T15:22:54.990Z,11.50
2019-05-02T15:25:25.201Z,10.10
2019-05-02T15:27:58.802Z,8.07
2019-05-02T15:30:26.961Z,13.37
2019-05-02T15:33:04.701Z,12.60
2019-05-02T15:35:52.560Z,16.27
2019-05-02T15:38:27.665Z,15.67
2019-05-02T15:40:59.365Z,11.33
2019-05-02T15:43:26.843Z,13.17
2019-05-02T15:45:56.899Z,14.17
2019-05-02T15:48:27.743Z,11.83
2019-05-02T15:51:00.168Z,9.90
2019-05-02T15:53:39.140Z,10.00
2019-05-02T15:56:15.764Z,11.77
2019-05-02T15:58:42.576Z,16.70
2019-05-02T16:01:28.625Z,11.20
2019-05-02T16:03:59.212Z,10.97
2019-05-02T16:06:31.560Z,9.47
2019-05-02T16:09:02.459Z,14.33
2019-05-02T16:11:34.192Z,12.07
2019-05-02T16:14:04.247Z,10.37
2019-05-02T16:16:36.555Z,10.20
2019-05-02T16:19:06.024Z,12.37
2019-05-02T16:21:42.642Z,8.43
2019-05-02T16:24:25.225Z,10.77
2019-05-02T16:26:57.398Z,6.10
2019-05-02T16:29:29.209Z,13.70
2019-05-02T16:32:35.908Z,11.80
2019-05-02T16:35:15.364Z,10.37
2019-05-02T16:37:42.078Z,9.67
2019-05-02T16:40:12.311Z,17.27
2019-05-02T16:42:44.256Z,12.00
2019-05-02T16:45:14.782Z,12.13
2019-05-02T16:47:44.957Z,9.40
2019-05-02T16:50:15.150Z,14.10
2019-05-02T16:52:47.385Z,13.77
2019-05-02T16:55:21.141Z,11.20
2019-05-02T16:57:48.884Z,15.43
2019-05-02T17:00:22.639Z,10.00
2019-05-02T17:02:52.897Z,9.63
2019-05-02T17:05:22.922Z,14.67
2019-05-02T17:08:18.669Z,12.67
2019-05-02T17:10:52.352Z,15.33
2019-05-02T17:13:18.900Z,16.80
2019-05-02T17:15:48.918Z,14.07
2019-05-02T17:18:18.972Z,12.47
2019-05-02T17:20:54.936Z,16.70
2019-05-02T17:23:22.261Z,12.90
2019-05-02T17:25:53.345Z,10.67
2019-05-02T17:28:23.407Z,13.87
2019-05-02T17:30:53.443Z,11.27
2019-05-02T17:33:24.466Z,14.13
2019-05-02T17:35:54.516Z,11.20
2019-05-02T17:38:29.068Z,11.73
2019-05-02T17:40:59.205Z,14.87
2019-05-02T17:43:28.073Z,17.43
2019-05-02T17:45:58.107Z,12.83
2019-05-02T17:48:29.422Z,13.07
2019-05-02T17:51:09.360Z,15.23
2019-05-02T17:53:42.758Z,10.47
2019-05-02T17:56:14.567Z,14.20
2019-05-02T17:58:47.440Z,14.37
2019-05-02T18:01:19.295Z,11.57
2019-05-02T18:03:49.320Z,13.27
2019-05-02T18:06:30.802Z,10.77
2019-05-02T18:08:55.138Z,14.33
2019-05-02T18:11:22.996Z,14.63
2019-05-02T18:13:53.074Z,11.70
2019-05-02T18:16:23.194Z,12.57
2019-05-02T18:18:53.261Z,19.73
2019-05-02T18:21:27.519Z,11.03
2019-05-02T18:23:57.288Z,15.17
2019-05-02T18:26:26.878Z,10.33
2019-05-02T18:29:02.865Z,10.97
2019-05-02T18:31:29.459Z,14.00
2019-05-02T18:34:01.637Z,11.87
2019-05-02T18:36:32.321Z,14.23
2019-05-02T18:39:05.191Z,15.87
2019-05-02T18:41:41.705Z,14.50
2019-05-02T18:44:08.414Z,10.47
2019-05-02T18:46:41.433Z,17.20
2019-05-02T18:49:12.220Z,9.97
2019-05-02T18:51:42.374Z,11.63
2019-05-02T18:54:12.399Z,13.40
2019-05-02T18:56:49.379Z,9.77
2019-05-02T18:59:19.668Z,17.40
2019-05-02T19:01:47.399Z,11.27
2019-05-02T19:04:17.680Z,15.80
2019-05-02T19:06:47.789Z,11.43
2019-05-02T19:09:24.959Z,13.97
2019-05-02T19:11:49.601Z,9.77
2019-05-02T19:14:22.320Z,11.23
2019-05-02T19:16:52.106Z,10.63
2019-05-02T19:19:22.627Z,19.77
2019-05-02T19:21:52.686Z,15.30
2019-05-02T19:24:22.841Z,17.63
2019-05-02T19:26:57.253Z,18.33
2019-05-02T19:29:31.957Z,15.00
2019-05-02T19:32:02.143Z,18.70
2019-05-02T19:34:32.487Z,21.37
2019-05-02T19:37:03.323Z,21.73
2019-05-02T19:39:34.320Z,17.37
2019-05-02T19:42:04.585Z,15.80
2019-05-02T19:44:34.622Z,11.43
2019-05-02T19:47:08.423Z,16.60
2019-05-02T19:49:36.391Z,20.60
2019-05-02T19:52:06.833Z,11.67
2019-05-02T19:54:40.947Z,15.40
2019-05-02T19:57:11.693Z,17.03
2019-05-02T19:59:43.156Z,20.27
2019-05-02T20:02:13.310Z,10.30
2019-05-02T20:04:44.351Z,10.60
2019-05-02T20:07:14.797Z,12.93
2019-05-02T20:09:47.207Z,13.83
2019-05-02T20:12:16.664Z,14.53
2019-05-02T20:14:47.633Z,13.20
2019-05-02T20:17:20.076Z,12.73
2019-05-02T20:19:52.938Z,10.40
2019-05-02T20:22:23.250Z,11.23
2019-05-02T20:24:59.834Z,16.10
2019-05-02T20:27:28.166Z,14.53
2019-05-02T20:29:57.760Z,12.63
2019-05-02T20:32:27.819Z,15.53
2019-05-02T20:34:57.836Z,16.63
2019-05-02T20:37:27.892Z,12.50
2019-05-02T20:39:58.063Z,27.47
2019-05-02T20:42:28.105Z,16.97
2019-05-02T20:44:58.171Z,24.43
2019-05-02T20:47:28.209Z,22.20
2019-05-02T20:49:58.255Z,10.63
2019-05-02T20:52:28.305Z,14.37
2019-05-02T20:54:58.331Z,15.70
2019-05-02T20:57:28.460Z,20.83
2019-05-02T20:59:58.497Z,10.97
2019-05-02T21:02:28.645Z,17.27
2019-05-02T21:04:58.726Z,18.77
2019-05-02T21:07:35.659Z,17.63
2019-05-02T21:10:41.754Z,13.00
2019-05-02T21:13:12.664Z,37.20
2019-05-02T21:15:42.785Z,29.20
2019-05-02T21:18:12.896Z,20.10
2019-05-02T21:20:42.949Z,18.77
2019-05-02T21:23:13.205Z,14.03
2019-05-02T21:25:43.269Z,13.20
2019-05-02T21:28:13.321Z,14.70
2019-05-02T21:30:43.437Z,12.10
2019-05-02T21:33:32.750Z,13.47
2019-05-02T21:36:02.836Z,10.67
2019-05-02T21:38:32.921Z,10.60
2019-05-02T21:41:02.982Z,18.33
2019-05-02T21:43:33.054Z,11.43
2019-05-02T21:46:03.219Z,11.03
2019-05-02T21:48:33.323Z,6.57
2019-05-02T21:51:08.802Z,9.90
2019-05-02T21:53:58.543Z,10.63
2019-05-02T21:56:42.916Z,10.07
2019-05-02T21:59:12.878Z,10.47
2019-05-02T22:01:49.325Z,10.83
2019-05-02T22:04:19.393Z,8.03
2019-05-02T22:06:52.210Z,8.43
2019-05-02T22:09:23.197Z,12.23
2019-05-02T22:11:53.450Z,10.53
2019-05-02T22:14:23.511Z,13.27
2019-05-02T22:16:53.636Z,11.17
2019-05-02T22:19:23.778Z,9.93
2019-05-02T22:21:53.810Z,13.53
2019-05-02T22:24:23.873Z,17.30
2019-05-02T22:26:53.957Z,15.33
2019-05-02T22:29:23.975Z,9.83
2019-05-02T22:31:54.518Z,9.70
2019-05-02T22:34:25.621Z,12.00
2019-05-02T22:36:55.677Z,15.77
2019-05-02T22:39:53.540Z,11.77
2019-05-02T22:42:23.786Z,16.17
2019-05-02T22:44:53.818Z,9.07
2019-05-02T22:47:23.880Z,13.03
2019-05-02T22:49:53.999Z,8.97
2019-05-02T22:52:24.066Z,13.83
2019-05-02T22:54:54.226Z,9.53
2019-05-02T22:57:24.265Z,11.97
2019-05-02T22:59:54.329Z,11.10
2019-05-02T23:02:24.566Z,11.27
2019-05-02T23:04:54.639Z,11.77
2019-05-02T23:07:24.660Z,6.20
2019-05-02T23:09:54.731Z,12.03
2019-05-02T23:12:25.126Z,11.00
2019-05-02T23:14:55.126Z,15.47
2019-05-02T23:17:25.155Z,12.23
2019-05-02T23:19:55.209Z,11.13
2019-05-02T23:22:25.238Z,9.87
2019-05-02T23:25:17.241Z,12.63
2019-05-02T23:27:53.330Z,12.90
2019-05-02T23:30:24.687Z,13.73
2019-05-02T23:32:55.606Z,13.17
2019-05-02T23:35:25.659Z,11.37
2019-05-02T23:37:55.742Z,15.50
2019-05-02T23:40:26.776Z,11.37
2019-05-02T23:42:56.801Z,12.37
2019-05-02T23:45:26.859Z,13.77
2019-05-02T23:47:56.886Z,10.90
2019-05-02T23:50:26.937Z,11.43
2019-05-02T23:52:56.959Z,12.40
2019-05-02T23:55:27.002Z,17.27
2019-05-02T23:57:57.026Z,13.90
